sensor_id;sensor_type;location;lat;lon;timestamp;P1;durP1;ratioP1;P2;durP2;ratioP2
54167;SDS011;40072;50.958;3.592;2023-02-28T00:01:06;5.15;;;3.00;;
54167;SDS011;40072;50.958;3.592;2023-02-28T00:03:32;5.43;;;2.83;;
54167;SDS011;40072;50.958;3.592;2023-02-28T00:06:00;8.23;;;3.15;;
54167;SDS011;40072;50.958;3.592;2023-02-28T00:08:27;5.75;;;3.30;;
54167;SDS011;40072;50.958;3.592;2023-02-28T00:10:53;4.53;;;3.28;;
54167;SDS011;40072;50.958;3.592;2023-02-28T00:13:19;7.65;;;4.00;;
54167;SDS011;40072;50.958;3.592;2023-02-28T00:15:44;4.28;;;3.40;;
54167;SDS011;40072;50.958;3.592;2023-02-28T00:18:10;7.95;;;4.18;;
54167;SDS011;40072;50.958;3.592;2023-02-28T00:20:37;13.70;;;3.90;;
54167;SDS011;40072;50.958;3.592;2023-02-28T00:23:02;8.05;;;3.30;;
54167;SDS011;40072;50.958;3.592;2023-02-28T00:25:28;7.03;;;3.53;;
54167;SDS011;40072;50.958;3.592;2023-02-28T00:27:54;8.70;;;4.15;;
54167;SDS011;40072;50.958;3.592;2023-02-28T00:30:23;7.90;;;4.43;;
54167;SDS011;40072;50.958;3.592;2023-02-28T00:32:49;9.40;;;4.53;;
54167;SDS011;40072;50.958;3.592;2023-02-28T00:35:15;9.55;;;5.88;;
54167;SDS011;40072;50.958;3.592;2023-02-28T00:37:41;13.32;;;6.30;;
54167;SDS011;40072;50.958;3.592;2023-02-28T00:40:07;10.60;;;5.97;;
54167;SDS011;40072;50.958;3.592;2023-02-28T00:42:34;10.13;;;5.55;;
54167;SDS011;40072;50.958;3.592;2023-02-28T00:45:00;14.38;;;6.32;;
54167;SDS011;40072;50.958;3.592;2023-02-28T00:47:26;10.82;;;6.03;;
54167;SDS011;40072;50.958;3.592;2023-02-28T00:49:52;9.50;;;6.10;;
54167;SDS011;40072;50.958;3.592;2023-02-28T00:52:17;10.93;;;6.00;;
54167;SDS011;40072;50.958;3.592;2023-02-28T00:54:43;12.45;;;5.88;;
54167;SDS011;40072;50.958;3.592;2023-02-28T00:57:09;12.52;;;5.82;;
54167;SDS011;40072;50.958;3.592;2023-02-28T00:59:34;10.45;;;5.68;;
54167;SDS011;40072;50.958;3.592;2023-02-28T01:02:00;10.43;;;5.85;;
54167;SDS011;40072;50.958;3.592;2023-02-28T01:04:26;12.43;;;5.28;;
54167;SDS011;40072;50.958;3.592;2023-02-28T01:06:52;7.28;;;4.97;;
54167;SDS011;40072;50.958;3.592;2023-02-28T01:09:17;9.35;;;4.90;;
54167;SDS011;40072;50.958;3.592;2023-02-28T01:11:43;7.03;;;5.20;;
54167;SDS011;40072;50.958;3.592;2023-02-28T01:14:12;20.08;;;5.90;;
54167;SDS011;40072;50.958;3.592;2023-02-28T01:19:04;10.95;;;5.45;;
54167;SDS011;40072;50.958;3.592;2023-02-28T01:21:30;8.52;;;5.22;;
54167;SDS011;40072;50.958;3.592;2023-02-28T01:23:56;9.52;;;5.47;;
54167;SDS011;40072;50.958;3.592;2023-02-28T01:26:22;13.48;;;5.88;;
54167;SDS011;40072;50.958;3.592;2023-02-28T01:28:49;12.57;;;6.43;;
54167;SDS011;40072;50.958;3.592;2023-02-28T01:31:16;9.88;;;6.07;;
54167;SDS011;40072;50.958;3.592;2023-02-28T01:33:43;14.50;;;6.03;;
54167;SDS011;40072;50.958;3.592;2023-02-28T01:36:13;13.40;;;6.32;;
54167;SDS011;40072;50.958;3.592;2023-02-28T01:38:40;13.13;;;5.72;;
54167;SDS011;40072;50.958;3.592;2023-02-28T01:41:07;11.90;;;6.28;;
54167;SDS011;40072;50.958;3.592;2023-02-28T01:46:07;10.68;;;6.15;;
54167;SDS011;40072;50.958;3.592;2023-02-28T01:48:35;18.63;;;6.32;;
54167;SDS011;40072;50.958;3.592;2023-02-28T01:51:07;10.38;;;6.28;;
54167;SDS011;40072;50.958;3.592;2023-02-28T01:53:38;8.57;;;6.07;;
54167;SDS011;40072;50.958;3.592;2023-02-28T01:56:07;12.65;;;6.20;;
54167;SDS011;40072;50.958;3.592;2023-02-28T01:58:35;7.90;;;6.13;;
54167;SDS011;40072;50.958;3.592;2023-02-28T02:01:02;7.38;;;5.60;;
54167;SDS011;40072;50.958;3.592;2023-02-28T02:03:28;8.20;;;5.20;;
54167;SDS011;40072;50.958;3.592;2023-02-28T02:05:55;10.35;;;6.15;;
54167;SDS011;40072;50.958;3.592;2023-02-28T02:08:24;12.48;;;6.82;;
54167;SDS011;40072;50.958;3.592;2023-02-28T02:10:57;10.18;;;6.15;;
54167;SDS011;40072;50.958;3.592;2023-02-28T02:18:54;20.90;;;7.10;;
54167;SDS011;40072;50.958;3.592;2023-02-28T02:23:58;13.38;;;6.90;;
54167;SDS011;40072;50.958;3.592;2023-02-28T02:31:57;16.23;;;7.78;;
54167;SDS011;40072;50.958;3.592;2023-02-28T02:40:21;11.65;;;6.53;;
54167;SDS011;40072;50.958;3.592;2023-02-28T02:45:37;11.48;;;7.03;;
54167;SDS011;40072;50.958;3.592;2023-02-28T02:50:57;10.35;;;6.25;;
54167;SDS011;40072;50.958;3.592;2023-02-28T02:53:36;9.38;;;6.82;;
54167;SDS011;40072;50.958;3.592;2023-02-28T02:56:06;10.30;;;6.65;;
54167;SDS011;40072;50.958;3.592;2023-02-28T02:58:35;10.00;;;5.82;;
54167;SDS011;40072;50.958;3.592;2023-02-28T03:01:07;13.70;;;6.63;;
54167;SDS011;40072;50.958;3.592;2023-02-28T03:03:35;9.32;;;5.00;;
54167;SDS011;40072;50.958;3.592;2023-02-28T03:06:02;9.25;;;6.45;;
54167;SDS011;40072;50.958;3.592;2023-02-28T03:08:29;9.98;;;5.85;;
54167;SDS011;40072;50.958;3.592;2023-02-28T03:11:02;9.35;;;6.10;;
54167;SDS011;40072;50.958;3.592;2023-02-28T03:13:40;13.90;;;7.50;;
54167;SDS011;40072;50.958;3.592;2023-02-28T03:19:08;9.68;;;6.45;;
54167;SDS011;40072;50.958;3.592;2023-02-28T03:27:29;12.38;;;8.18;;
54167;SDS011;40072;50.958;3.592;2023-02-28T03:32:42;14.00;;;7.75;;
54167;SDS011;40072;50.958;3.592;2023-02-28T03:35:19;13.48;;;7.97;;
54167;SDS011;40072;50.958;3.592;2023-02-28T03:37:52;16.63;;;8.75;;
54167;SDS011;40072;50.958;3.592;2023-02-28T03:40:23;13.32;;;8.20;;
54167;SDS011;40072;50.958;3.592;2023-02-28T03:42:55;12.20;;;8.27;;
54167;SDS011;40072;50.958;3.592;2023-02-28T03:45:25;10.65;;;7.90;;
54167;SDS011;40072;50.958;3.592;2023-02-28T03:47:56;11.35;;;7.70;;
54167;SDS011;40072;50.958;3.592;2023-02-28T03:53:01;18.52;;;8.40;;
54167;SDS011;40072;50.958;3.592;2023-02-28T03:55:37;12.38;;;8.23;;
54167;SDS011;40072;50.958;3.592;2023-02-28T03:58:08;15.75;;;8.50;;
54167;SDS011;40072;50.958;3.592;2023-02-28T04:01:03;22.20;;;8.52;;
54167;SDS011;40072;50.958;3.592;2023-02-28T04:03:37;10.90;;;7.75;;
54167;SDS011;40072;50.958;3.592;2023-02-28T04:06:04;13.18;;;7.75;;
54167;SDS011;40072;50.958;3.592;2023-02-28T04:08:33;22.73;;;9.10;;
54167;SDS011;40072;50.958;3.592;2023-02-28T04:11:06;13.02;;;8.02;;
54167;SDS011;40072;50.958;3.592;2023-02-28T04:13:41;13.20;;;7.72;;
54167;SDS011;40072;50.958;3.592;2023-02-28T04:16:08;13.85;;;8.45;;
54167;SDS011;40072;50.958;3.592;2023-02-28T04:18:37;16.75;;;8.63;;
54167;SDS011;40072;50.958;3.592;2023-02-28T04:21:08;12.70;;;8.40;;
54167;SDS011;40072;50.958;3.592;2023-02-28T04:23:34;18.45;;;8.57;;
54167;SDS011;40072;50.958;3.592;2023-02-28T04:26:00;14.77;;;8.45;;
54167;SDS011;40072;50.958;3.592;2023-02-28T04:28:25;17.35;;;8.25;;
54167;SDS011;40072;50.958;3.592;2023-02-28T04:30:55;8.93;;;6.93;;
54167;SDS011;40072;50.958;3.592;2023-02-28T04:33:21;13.15;;;7.68;;
54167;SDS011;40072;50.958;3.592;2023-02-28T04:35:47;12.68;;;7.43;;
54167;SDS011;40072;50.958;3.592;2023-02-28T04:38:12;12.82;;;8.05;;
54167;SDS011;40072;50.958;3.592;2023-02-28T04:40:38;11.07;;;7.38;;
54167;SDS011;40072;50.958;3.592;2023-02-28T04:43:04;11.68;;;7.25;;
54167;SDS011;40072;50.958;3.592;2023-02-28T04:45:30;12.35;;;6.95;;
54167;SDS011;40072;50.958;3.592;2023-02-28T04:47:57;11.25;;;6.95;;
54167;SDS011;40072;50.958;3.592;2023-02-28T04:50:23;12.52;;;6.57;;
54167;SDS011;40072;50.958;3.592;2023-02-28T04:52:48;13.35;;;7.00;;
54167;SDS011;40072;50.958;3.592;2023-02-28T04:55:14;15.25;;;6.90;;
54167;SDS011;40072;50.958;3.592;2023-02-28T04:57:40;14.90;;;7.13;;
54167;SDS011;40072;50.958;3.592;2023-02-28T05:00:08;11.10;;;6.75;;
54167;SDS011;40072;50.958;3.592;2023-02-28T05:02:36;8.52;;;6.78;;
54167;SDS011;40072;50.958;3.592;2023-02-28T05:05:04;16.50;;;6.93;;
54167;SDS011;40072;50.958;3.592;2023-02-28T05:07:30;12.68;;;6.80;;
54167;SDS011;40072;50.958;3.592;2023-02-28T05:09:56;11.10;;;6.10;;
54167;SDS011;40072;50.958;3.592;2023-02-28T05:12:21;10.60;;;6.82;;
54167;SDS011;40072;50.958;3.592;2023-02-28T05:14:47;12.90;;;6.88;;
54167;SDS011;40072;50.958;3.592;2023-02-28T05:17:12;11.13;;;6.13;;
54167;SDS011;40072;50.958;3.592;2023-02-28T05:19:38;11.13;;;6.50;;
54167;SDS011;40072;50.958;3.592;2023-02-28T05:22:04;9.02;;;5.85;;
54167;SDS011;40072;50.958;3.592;2023-02-28T05:24:29;13.15;;;7.05;;
54167;SDS011;40072;50.958;3.592;2023-02-28T05:26:55;11.35;;;6.50;;
54167;SDS011;40072;50.958;3.592;2023-02-28T05:29:21;18.98;;;6.07;;
54167;SDS011;40072;50.958;3.592;2023-02-28T05:31:47;11.45;;;6.95;;
54167;SDS011;40072;50.958;3.592;2023-02-28T05:34:13;17.20;;;6.40;;
54167;SDS011;40072;50.958;3.592;2023-02-28T05:36:40;11.38;;;6.85;;
54167;SDS011;40072;50.958;3.592;2023-02-28T05:39:06;12.30;;;6.60;;
54167;SDS011;40072;50.958;3.592;2023-02-28T05:41:37;13.50;;;7.13;;
54167;SDS011;40072;50.958;3.592;2023-02-28T05:44:06;13.13;;;6.65;;
54167;SDS011;40072;50.958;3.592;2023-02-28T05:46:32;12.32;;;6.70;;
54167;SDS011;40072;50.958;3.592;2023-02-28T05:48:58;15.23;;;7.20;;
54167;SDS011;40072;50.958;3.592;2023-02-28T05:51:25;10.43;;;6.57;;
54167;SDS011;40072;50.958;3.592;2023-02-28T05:53:51;9.93;;;6.57;;
54167;SDS011;40072;50.958;3.592;2023-02-28T05:56:16;10.85;;;6.30;;
54167;SDS011;40072;50.958;3.592;2023-02-28T05:58:42;16.75;;;6.93;;
54167;SDS011;40072;50.958;3.592;2023-02-28T06:01:21;13.30;;;6.68;;
54167;SDS011;40072;50.958;3.592;2023-02-28T06:03:48;13.32;;;6.47;;
54167;SDS011;40072;50.958;3.592;2023-02-28T06:06:14;8.98;;;6.50;;
54167;SDS011;40072;50.958;3.592;2023-02-28T06:08:40;9.95;;;6.70;;
54167;SDS011;40072;50.958;3.592;2023-02-28T06:11:08;12.82;;;6.65;;
54167;SDS011;40072;50.958;3.592;2023-02-28T06:13:34;17.77;;;6.95;;
54167;SDS011;40072;50.958;3.592;2023-02-28T06:16:02;15.07;;;7.07;;
54167;SDS011;40072;50.958;3.592;2023-02-28T06:18:28;12.57;;;6.65;;
54167;SDS011;40072;50.958;3.592;2023-02-28T06:20:54;14.38;;;7.00;;
54167;SDS011;40072;50.958;3.592;2023-02-28T06:23:20;10.18;;;6.25;;
54167;SDS011;40072;50.958;3.592;2023-02-28T06:25:46;13.10;;;6.50;;
54167;SDS011;40072;50.958;3.592;2023-02-28T06:28:12;11.32;;;6.95;;
54167;SDS011;40072;50.958;3.592;2023-02-28T06:30:38;9.32;;;7.03;;
54167;SDS011;40072;50.958;3.592;2023-02-28T06:33:04;10.02;;;6.75;;
54167;SDS011;40072;50.958;3.592;2023-02-28T06:35:30;9.90;;;7.10;;
54167;SDS011;40072;50.958;3.592;2023-02-28T06:37:56;11.60;;;7.60;;
54167;SDS011;40072;50.958;3.592;2023-02-28T06:40:22;12.35;;;6.85;;
54167;SDS011;40072;50.958;3.592;2023-02-28T06:42:48;17.80;;;7.43;;
54167;SDS011;40072;50.958;3.592;2023-02-28T06:45:13;13.02;;;7.22;;
54167;SDS011;40072;50.958;3.592;2023-02-28T06:47:40;10.55;;;6.75;;
54167;SDS011;40072;50.958;3.592;2023-02-28T06:50:08;17.20;;;6.90;;
54167;SDS011;40072;50.958;3.592;2023-02-28T06:52:35;9.80;;;7.45;;
54167;SDS011;40072;50.958;3.592;2023-02-28T06:55:02;19.13;;;7.88;;
54167;SDS011;40072;50.958;3.592;2023-02-28T06:57:29;16.52;;;7.15;;
54167;SDS011;40072;50.958;3.592;2023-02-28T06:59:57;13.68;;;6.63;;
54167;SDS011;40072;50.958;3.592;2023-02-28T07:02:23;17.92;;;6.15;;
54167;SDS011;40072;50.958;3.592;2023-02-28T07:04:49;16.08;;;7.20;;
54167;SDS011;40072;50.958;3.592;2023-02-28T07:07:15;14.30;;;7.45;;
54167;SDS011;40072;50.958;3.592;2023-02-28T07:09:40;12.25;;;6.63;;
54167;SDS011;40072;50.958;3.592;2023-02-28T07:12:06;11.27;;;6.47;;
54167;SDS011;40072;50.958;3.592;2023-02-28T07:14:32;14.73;;;7.05;;
54167;SDS011;40072;50.958;3.592;2023-02-28T07:16:57;18.48;;;7.15;;
54167;SDS011;40072;50.958;3.592;2023-02-28T07:19:23;19.40;;;6.00;;
54167;SDS011;40072;50.958;3.592;2023-02-28T07:21:49;11.82;;;6.10;;
54167;SDS011;40072;50.958;3.592;2023-02-28T07:24:14;11.95;;;6.13;;
54167;SDS011;40072;50.958;3.592;2023-02-28T07:26:42;12.65;;;6.53;;
54167;SDS011;40072;50.958;3.592;2023-02-28T07:29:08;18.58;;;5.68;;
54167;SDS011;40072;50.958;3.592;2023-02-28T07:31:34;10.90;;;6.25;;
54167;SDS011;40072;50.958;3.592;2023-02-28T07:34:00;11.90;;;6.30;;
54167;SDS011;40072;50.958;3.592;2023-02-28T07:36:25;15.95;;;6.28;;
54167;SDS011;40072;50.958;3.592;2023-02-28T07:38:51;17.23;;;6.93;;
54167;SDS011;40072;50.958;3.592;2023-02-28T07:41:18;18.05;;;6.78;;
54167;SDS011;40072;50.958;3.592;2023-02-28T07:43:44;11.48;;;6.20;;
54167;SDS011;40072;50.958;3.592;2023-02-28T07:46:12;15.15;;;5.70;;
54167;SDS011;40072;50.958;3.592;2023-02-28T07:48:42;18.00;;;6.35;;
54167;SDS011;40072;50.958;3.592;2023-02-28T07:51:08;11.35;;;6.03;;
54167;SDS011;40072;50.958;3.592;2023-02-28T07:53:34;9.88;;;5.53;;
54167;SDS011;40072;50.958;3.592;2023-02-28T07:56:00;9.63;;;4.82;;
54167;SDS011;40072;50.958;3.592;2023-02-28T07:58:28;16.52;;;5.72;;
54167;SDS011;40072;50.958;3.592;2023-02-28T08:00:55;12.05;;;3.88;;
54167;SDS011;40072;50.958;3.592;2023-02-28T08:03:21;11.15;;;4.13;;
54167;SDS011;40072;50.958;3.592;2023-02-28T08:05:48;7.88;;;4.03;;
54167;SDS011;40072;50.958;3.592;2023-02-28T08:08:15;10.35;;;3.65;;
54167;SDS011;40072;50.958;3.592;2023-02-28T08:10:41;16.73;;;3.95;;
54167;SDS011;40072;50.958;3.592;2023-02-28T08:13:07;11.68;;;3.83;;
54167;SDS011;40072;50.958;3.592;2023-02-28T08:15:33;8.25;;;2.55;;
54167;SDS011;40072;50.958;3.592;2023-02-28T08:17:59;5.97;;;3.03;;
54167;SDS011;40072;50.958;3.592;2023-02-28T08:20:25;11.68;;;4.38;;
54167;SDS011;40072;50.958;3.592;2023-02-28T08:22:51;13.43;;;3.78;;
54167;SDS011;40072;50.958;3.592;2023-02-28T08:25:17;11.75;;;4.03;;
54167;SDS011;40072;50.958;3.592;2023-02-28T08:27:43;10.75;;;4.28;;
54167;SDS011;40072;50.958;3.592;2023-02-28T08:30:12;12.15;;;4.78;;
54167;SDS011;40072;50.958;3.592;2023-02-28T08:32:39;4.68;;;2.90;;
54167;SDS011;40072;50.958;3.592;2023-02-28T08:35:05;15.68;;;3.75;;
54167;SDS011;40072;50.958;3.592;2023-02-28T08:37:31;7.45;;;3.13;;
54167;SDS011;40072;50.958;3.592;2023-02-28T08:39:57;9.35;;;3.58;;
54167;SDS011;40072;50.958;3.592;2023-02-28T08:42:23;6.70;;;3.60;;
54167;SDS011;40072;50.958;3.592;2023-02-28T08:44:49;12.80;;;3.60;;
54167;SDS011;40072;50.958;3.592;2023-02-28T08:47:14;6.28;;;3.17;;
54167;SDS011;40072;50.958;3.592;2023-02-28T08:49:40;10.13;;;3.28;;
54167;SDS011;40072;50.958;3.592;2023-02-28T08:52:06;14.95;;;3.83;;
54167;SDS011;40072;50.958;3.592;2023-02-28T08:54:32;3.97;;;2.30;;
54167;SDS011;40072;50.958;3.592;2023-02-28T08:56:59;11.77;;;3.90;;
54167;SDS011;40072;50.958;3.592;2023-02-28T08:59:25;5.57;;;3.70;;
54167;SDS011;40072;50.958;3.592;2023-02-28T09:01:50;9.48;;;3.80;;
54167;SDS011;40072;50.958;3.592;2023-02-28T09:04:16;9.88;;;2.58;;
54167;SDS011;40072;50.958;3.592;2023-02-28T09:06:42;5.47;;;2.85;;
54167;SDS011;40072;50.958;3.592;2023-02-28T09:09:09;15.45;;;3.85;;
54167;SDS011;40072;50.958;3.592;2023-02-28T09:11:35;12.27;;;3.22;;
54167;SDS011;40072;50.958;3.592;2023-02-28T09:14:01;9.35;;;3.08;;
54167;SDS011;40072;50.958;3.592;2023-02-28T09:16:28;3.22;;;2.75;;
54167;SDS011;40072;50.958;3.592;2023-02-28T09:18:55;6.88;;;2.50;;
54167;SDS011;40072;50.958;3.592;2023-02-28T09:21:21;6.25;;;2.65;;
54167;SDS011;40072;50.958;3.592;2023-02-28T09:23:47;8.05;;;2.15;;
54167;SDS011;40072;50.958;3.592;2023-02-28T09:26:15;4.80;;;1.92;;
54167;SDS011;40072;50.958;3.592;2023-02-28T09:28:44;6.18;;;1.58;;
54167;SDS011;40072;50.958;3.592;2023-02-28T09:31:12;5.15;;;2.25;;
54167;SDS011;40072;50.958;3.592;2023-02-28T09:33:46;7.45;;;2.65;;
54167;SDS011;40072;50.958;3.592;2023-02-28T09:36:12;7.65;;;2.58;;
54167;SDS011;40072;50.958;3.592;2023-02-28T09:38:38;4.68;;;2.17;;
54167;SDS011;40072;50.958;3.592;2023-02-28T09:41:10;5.78;;;3.28;;
54167;SDS011;40072;50.958;3.592;2023-02-28T09:43:40;5.32;;;2.47;;
54167;SDS011;40072;50.958;3.592;2023-02-28T09:46:18;10.48;;;3.15;;
54167;SDS011;40072;50.958;3.592;2023-02-28T09:49:06;2.65;;;1.75;;
54167;SDS011;40072;50.958;3.592;2023-02-28T09:54:21;7.00;;;1.90;;
54167;SDS011;40072;50.958;3.592;2023-02-28T09:56:53;11.43;;;2.97;;
54167;SDS011;40072;50.958;3.592;2023-02-28T10:05:52;7.63;;;2.28;;
54167;SDS011;40072;50.958;3.592;2023-02-28T10:08:25;9.13;;;1.85;;
54167;SDS011;40072;50.958;3.592;2023-02-28T10:10:57;5.22;;;2.05;;
54167;SDS011;40072;50.958;3.592;2023-02-28T10:13:36;11.35;;;2.67;;
54167;SDS011;40072;50.958;3.592;2023-02-28T10:16:31;7.40;;;2.20;;
54167;SDS011;40072;50.958;3.592;2023-02-28T10:21:43;10.82;;;2.92;;
54167;SDS011;40072;50.958;3.592;2023-02-28T10:24:25;11.88;;;3.20;;
54167;SDS011;40072;50.958;3.592;2023-02-28T10:26:52;4.90;;;1.45;;
54167;SDS011;40072;50.958;3.592;2023-02-28T10:29:24;14.88;;;2.83;;
54167;SDS011;40072;50.958;3.592;2023-02-28T10:31:51;4.05;;;2.25;;
54167;SDS011;40072;50.958;3.592;2023-02-28T10:34:17;10.50;;;2.55;;
54167;SDS011;40072;50.958;3.592;2023-02-28T10:36:42;5.93;;;2.60;;
54167;SDS011;40072;50.958;3.592;2023-02-28T10:42:23;5.25;;;2.35;;
54167;SDS011;40072;50.958;3.592;2023-02-28T10:47:57;6.05;;;2.10;;
54167;SDS011;40072;50.958;3.592;2023-02-28T10:50:27;7.47;;;2.22;;
54167;SDS011;40072;50.958;3.592;2023-02-28T10:52:57;11.32;;;3.88;;
54167;SDS011;40072;50.958;3.592;2023-02-28T10:55:39;5.00;;;2.00;;
54167;SDS011;40072;50.958;3.592;2023-02-28T10:58:17;9.15;;;2.17;;
54167;SDS011;40072;50.958;3.592;2023-02-28T11:00:46;3.97;;;1.52;;
54167;SDS011;40072;50.958;3.592;2023-02-28T11:03:25;11.05;;;1.45;;
54167;SDS011;40072;50.958;3.592;2023-02-28T11:05:58;1.30;;;1.20;;
54167;SDS011;40072;50.958;3.592;2023-02-28T11:08:29;3.17;;;2.05;;
54167;SDS011;40072;50.958;3.592;2023-02-28T11:10:56;4.93;;;2.08;;
54167;SDS011;40072;50.958;3.592;2023-02-28T11:16:02;8.90;;;2.10;;
54167;SDS011;40072;50.958;3.592;2023-02-28T11:18:35;1.98;;;1.30;;
54167;SDS011;40072;50.958;3.592;2023-02-28T11:21:07;6.90;;;1.40;;
54167;SDS011;40072;50.958;3.592;2023-02-28T11:23:35;2.25;;;1.42;;
54167;SDS011;40072;50.958;3.592;2023-02-28T11:26:05;3.90;;;1.80;;
54167;SDS011;40072;50.958;3.592;2023-02-28T11:28:43;2.40;;;1.65;;
54167;SDS011;40072;50.958;3.592;2023-02-28T11:36:15;3.42;;;1.85;;
54167;SDS011;40072;50.958;3.592;2023-02-28T11:38:41;2.28;;;1.83;;
54167;SDS011;40072;50.958;3.592;2023-02-28T11:46:56;2.78;;;1.52;;
54167;SDS011;40072;50.958;3.592;2023-02-28T11:49:37;7.40;;;1.63;;
54167;SDS011;40072;50.958;3.592;2023-02-28T12:26:15;3.05;;;1.25;;
54167;SDS011;40072;50.958;3.592;2023-02-28T12:29:17;11.13;;;2.05;;
54167;SDS011;40072;50.958;3.592;2023-02-28T12:31:55;2.20;;;1.38;;
54167;SDS011;40072;50.958;3.592;2023-02-28T12:34:49;4.97;;;1.20;;
54167;SDS011;40072;50.958;3.592;2023-02-28T12:37:22;4.10;;;0.90;;
54167;SDS011;40072;50.958;3.592;2023-02-28T12:39:56;1.95;;;1.30;;
54167;SDS011;40072;50.958;3.592;2023-02-28T12:42:31;1.55;;;1.00;;
54167;SDS011;40072;50.958;3.592;2023-02-28T12:45:12;1.73;;;1.20;;
54167;SDS011;40072;50.958;3.592;2023-02-28T12:47:43;0.80;;;0.80;;
54167;SDS011;40072;50.958;3.592;2023-02-28T12:50:12;1.50;;;0.90;;
54167;SDS011;40072;50.958;3.592;2023-02-28T13:00:36;2.53;;;1.05;;
54167;SDS011;40072;50.958;3.592;2023-02-28T13:09:13;2.90;;;1.17;;
54167;SDS011;40072;50.958;3.592;2023-02-28T13:11:47;1.40;;;1.17;;
54167;SDS011;40072;50.958;3.592;2023-02-28T13:14:20;1.48;;;0.85;;
54167;SDS011;40072;50.958;3.592;2023-02-28T13:19:29;1.73;;;1.05;;
54167;SDS011;40072;50.958;3.592;2023-02-28T13:21:57;5.72;;;1.08;;
54167;SDS011;40072;50.958;3.592;2023-02-28T13:27:11;2.05;;;1.00;;
54167;SDS011;40072;50.958;3.592;2023-02-28T13:32:34;2.30;;;1.30;;
54167;SDS011;40072;50.958;3.592;2023-02-28T13:37:32;2.67;;;1.50;;
54167;SDS011;40072;50.958;3.592;2023-02-28T13:40:44;2.22;;;1.30;;
54167;SDS011;40072;50.958;3.592;2023-02-28T13:42:54;2.72;;;1.50;;
54167;SDS011;40072;50.958;3.592;2023-02-28T13:45:29;2.22;;;1.33;;
54167;SDS011;40072;50.958;3.592;2023-02-28T13:48:05;1.70;;;1.02;;
54167;SDS011;40072;50.958;3.592;2023-02-28T13:50:42;2.60;;;1.05;;
54167;SDS011;40072;50.958;3.592;2023-02-28T13:55:49;1.13;;;0.82;;
54167;SDS011;40072;50.958;3.592;2023-02-28T14:06:55;4.32;;;1.40;;
54167;SDS011;40072;50.958;3.592;2023-02-28T14:17:51;4.07;;;1.30;;
54167;SDS011;40072;50.958;3.592;2023-02-28T14:20:19;1.20;;;0.90;;
54167;SDS011;40072;50.958;3.592;2023-02-28T14:22:56;1.38;;;1.10;;
54167;SDS011;40072;50.958;3.592;2023-02-28T14:34:59;2.17;;;1.50;;
54167;SDS011;40072;50.958;3.592;2023-02-28T14:37:29;1.30;;;1.20;;
54167;SDS011;40072;50.958;3.592;2023-02-28T14:39:58;1.98;;;1.27;;
54167;SDS011;40072;50.958;3.592;2023-02-28T14:42:30;6.28;;;1.45;;
54167;SDS011;40072;50.958;3.592;2023-02-28T14:44:59;6.15;;;1.77;;
54167;SDS011;40072;50.958;3.592;2023-02-28T14:47:27;3.03;;;1.00;;
54167;SDS011;40072;50.958;3.592;2023-02-28T14:49:55;6.40;;;1.55;;
54167;SDS011;40072;50.958;3.592;2023-02-28T14:52:27;3.42;;;1.40;;
54167;SDS011;40072;50.958;3.592;2023-02-28T14:54:59;6.28;;;2.03;;
54167;SDS011;40072;50.958;3.592;2023-02-28T14:57:27;2.17;;;1.52;;
54167;SDS011;40072;50.958;3.592;2023-02-28T15:00:09;6.50;;;1.67;;
54167;SDS011;40072;50.958;3.592;2023-02-28T15:02:40;2.97;;;1.45;;
54167;SDS011;40072;50.958;3.592;2023-02-28T15:05:26;2.50;;;1.83;;
54167;SDS011;40072;50.958;3.592;2023-02-28T15:08:01;2.17;;;1.90;;
54167;SDS011;40072;50.958;3.592;2023-02-28T15:10:39;12.02;;;2.10;;
54167;SDS011;40072;50.958;3.592;2023-02-28T15:13:13;3.88;;;1.60;;
54167;SDS011;40072;50.958;3.592;2023-02-28T15:21:18;3.90;;;2.15;;
54167;SDS011;40072;50.958;3.592;2023-02-28T15:23:59;2.78;;;1.70;;
54167;SDS011;40072;50.958;3.592;2023-02-28T15:26:31;6.00;;;1.60;;
54167;SDS011;40072;50.958;3.592;2023-02-28T15:29:04;3.83;;;2.00;;
54167;SDS011;40072;50.958;3.592;2023-02-28T15:31:33;2.53;;;1.50;;
54167;SDS011;40072;50.958;3.592;2023-02-28T15:34:04;2.15;;;1.35;;
54167;SDS011;40072;50.958;3.592;2023-02-28T15:36:34;3.45;;;1.55;;
54167;SDS011;40072;50.958;3.592;2023-02-28T15:39:02;3.95;;;1.25;;
54167;SDS011;40072;50.958;3.592;2023-02-28T15:41:43;1.58;;;1.02;;
54167;SDS011;40072;50.958;3.592;2023-02-28T15:44:28;5.03;;;1.20;;
54167;SDS011;40072;50.958;3.592;2023-02-28T15:47:04;3.30;;;1.98;;
54167;SDS011;40072;50.958;3.592;2023-02-28T15:50:00;5.40;;;1.60;;
54167;SDS011;40072;50.958;3.592;2023-02-28T15:52:38;3.60;;;1.75;;
54167;SDS011;40072;50.958;3.592;2023-02-28T15:57:38;2.70;;;1.75;;
54167;SDS011;40072;50.958;3.592;2023-02-28T16:00:06;3.67;;;1.65;;
54167;SDS011;40072;50.958;3.592;2023-02-28T16:02:37;15.70;;;1.80;;
54167;SDS011;40072;50.958;3.592;2023-02-28T16:07:39;8.70;;;1.77;;
54167;SDS011;40072;50.958;3.592;2023-02-28T16:10:08;4.22;;;2.15;;
54167;SDS011;40072;50.958;3.592;2023-02-28T16:12:36;6.40;;;2.03;;
54167;SDS011;40072;50.958;3.592;2023-02-28T16:15:06;4.25;;;1.60;;
54167;SDS011;40072;50.958;3.592;2023-02-28T16:17:53;2.15;;;1.65;;
54167;SDS011;40072;50.958;3.592;2023-02-28T16:22:46;11.90;;;1.75;;
54167;SDS011;40072;50.958;3.592;2023-02-28T16:25:16;4.20;;;1.88;;
54167;SDS011;40072;50.958;3.592;2023-02-28T16:27:45;1.65;;;1.40;;
54167;SDS011;40072;50.958;3.592;2023-02-28T16:32:45;1.95;;;1.75;;
54167;SDS011;40072;50.958;3.592;2023-02-28T16:35:11;3.28;;;1.92;;
54167;SDS011;40072;50.958;3.592;2023-02-28T16:37:39;3.78;;;1.85;;
54167;SDS011;40072;50.958;3.592;2023-02-28T16:40:05;9.30;;;2.08;;
54167;SDS011;40072;50.958;3.592;2023-02-28T16:42:33;1.85;;;1.42;;
54167;SDS011;40072;50.958;3.592;2023-02-28T16:44:58;3.85;;;1.70;;
54167;SDS011;40072;50.958;3.592;2023-02-28T16:47:24;1.88;;;1.35;;
54167;SDS011;40072;50.958;3.592;2023-02-28T16:49:51;3.20;;;2.05;;
54167;SDS011;40072;50.958;3.592;2023-02-28T16:52:17;4.57;;;1.83;;
54167;SDS011;40072;50.958;3.592;2023-02-28T16:54:43;3.28;;;2.10;;
54167;SDS011;40072;50.958;3.592;2023-02-28T16:57:27;5.65;;;2.53;;
54167;SDS011;40072;50.958;3.592;2023-02-28T16:59:52;3.30;;;2.33;;
54167;SDS011;40072;50.958;3.592;2023-02-28T17:02:18;4.68;;;2.45;;
54167;SDS011;40072;50.958;3.592;2023-02-28T17:04:45;3.83;;;2.28;;
54167;SDS011;40072;50.958;3.592;2023-02-28T17:07:11;5.43;;;2.30;;
54167;SDS011;40072;50.958;3.592;2023-02-28T17:09:38;3.88;;;2.15;;
54167;SDS011;40072;50.958;3.592;2023-02-28T17:12:04;2.50;;;1.77;;
54167;SDS011;40072;50.958;3.592;2023-02-28T17:14:30;3.97;;;2.30;;
54167;SDS011;40072;50.958;3.592;2023-02-28T17:16:56;5.43;;;3.00;;
54167;SDS011;40072;50.958;3.592;2023-02-28T17:19:22;4.88;;;2.75;;
54167;SDS011;40072;50.958;3.592;2023-02-28T17:21:47;4.20;;;2.33;;
54167;SDS011;40072;50.958;3.592;2023-02-28T17:24:13;5.60;;;2.70;;
54167;SDS011;40072;50.958;3.592;2023-02-28T17:26:39;2.55;;;2.33;;
54167;SDS011;40072;50.958;3.592;2023-02-28T17:29:16;4.28;;;2.60;;
54167;SDS011;40072;50.958;3.592;2023-02-28T17:31:44;5.50;;;3.00;;
54167;SDS011;40072;50.958;3.592;2023-02-28T17:34:09;11.65;;;3.38;;
54167;SDS011;40072;50.958;3.592;2023-02-28T17:36:35;6.10;;;2.72;;
54167;SDS011;40072;50.958;3.592;2023-02-28T17:39:02;8.55;;;3.55;;
54167;SDS011;40072;50.958;3.592;2023-02-28T17:41:30;5.10;;;3.05;;
54167;SDS011;40072;50.958;3.592;2023-02-28T17:43:56;8.30;;;3.00;;
54167;SDS011;40072;50.958;3.592;2023-02-28T17:46:23;14.48;;;3.25;;
54167;SDS011;40072;50.958;3.592;2023-02-28T17:48:50;5.07;;;3.05;;
54167;SDS011;40072;50.958;3.592;2023-02-28T17:51:17;10.88;;;3.05;;